createdAt,value
2022-12-20T00:00:30.944Z,9.718587
2022-12-20T00:01:31.026Z,9.718595
2022-12-20T00:02:31.088Z,9.718786
2022-12-20T00:03:30.919Z,9.719027
2022-12-20T00:04:30.932Z,9.719131
2022-12-20T00:05:30.889Z,9.719126
2022-12-20T00:06:30.904Z,9.719133
2022-12-20T00:07:30.874Z,9.719093
2022-12-20T00:08:31.882Z,9.719173
2022-12-20T00:09:30.875Z,9.719234
2022-12-20T00:10:30.859Z,9.719102
2022-12-20T00:11:30.859Z,9.718954
2022-12-20T00:12:30.823Z,9.719095
2022-12-20T00:13:30.820Z,9.719169
2022-12-20T00:14:30.848Z,9.719193
2022-12-20T00:15:30.803Z,9.719105
2022-12-20T00:16:30.776Z,9.719043
2022-12-20T00:17:30.808Z,9.718955
2022-12-20T00:18:30.762Z,9.718935
2022-12-20T00:19:30.766Z,9.719172
2022-12-20T00:20:30.754Z,9.718984
2022-12-20T00:21:30.730Z,9.718993
2022-12-20T00:22:30.709Z,9.719075
2022-12-20T00:23:30.717Z,9.719204
2022-12-20T00:24:30.721Z,9.719143
2022-12-20T00:25:30.684Z,9.719166
2022-12-20T00:26:30.684Z,9.719062
2022-12-20T00:27:30.676Z,9.719145
2022-12-20T00:28:30.677Z,9.719103
2022-12-20T00:29:30.689Z,9.719128
2022-12-20T00:30:30.656Z,9.719337
2022-12-20T00:31:30.676Z,9.719237
2022-12-20T00:32:30.631Z,9.719118
2022-12-20T00:33:30.619Z,9.719276
2022-12-20T00:34:30.616Z,9.719215
2022-12-20T00:35:30.592Z,9.719267
2022-12-20T00:36:30.586Z,9.719121
2022-12-20T00:37:30.629Z,9.718768
2022-12-20T00:38:31.645Z,9.718959
2022-12-20T00:39:30.571Z,9.719238
2022-12-20T00:40:30.551Z,9.718967
2022-12-20T00:41:30.531Z,9.719166
2022-12-20T00:42:30.526Z,9.718959
2022-12-20T00:43:30.525Z,9.719207
2022-12-20T00:44:30.545Z,9.719254
2022-12-20T00:45:30.501Z,9.719336
2022-12-20T00:46:30.515Z,9.718993
2022-12-20T00:47:30.473Z,9.718818
2022-12-20T00:48:30.459Z,9.719094
2022-12-20T00:49:30.489Z,9.719188
2022-12-20T00:50:30.442Z,9.719213
2022-12-20T00:51:30.450Z,9.719183
2022-12-20T00:52:30.419Z,9.719300
2022-12-20T00:53:30.496Z,9.719472
2022-12-20T00:54:30.414Z,9.719286
2022-12-20T00:55:30.397Z,9.719217
2022-12-20T00:56:30.416Z,9.719299
2022-12-20T00:57:30.378Z,9.719312
2022-12-20T00:58:30.369Z,9.719211
2022-12-20T00:59:30.360Z,9.719171
2022-12-20T01:00:30.347Z,9.719258
2022-12-20T01:01:30.629Z,9.719178
2022-12-20T01:02:30.488Z,9.719232
2022-12-20T01:03:30.353Z,9.719042
2022-12-20T01:04:30.318Z,9.719010
2022-12-20T01:05:30.305Z,9.719146
2022-12-20T01:06:30.303Z,9.719049
2022-12-20T01:07:30.275Z,9.718994
2022-12-20T01:08:30.281Z,9.719140
2022-12-20T01:09:30.271Z,9.719179
2022-12-20T01:10:31.249Z,9.719142
2022-12-20T01:11:30.235Z,9.719154
2022-12-20T01:12:30.302Z,9.719147
2022-12-20T01:13:30.236Z,9.719067
2022-12-20T01:14:30.210Z,9.718822
2022-12-20T01:15:30.207Z,9.718864
2022-12-20T01:16:30.248Z,9.718978
2022-12-20T01:17:30.205Z,9.719130
2022-12-20T01:18:30.191Z,9.719119
2022-12-20T01:19:30.188Z,9.719171
2022-12-20T01:20:30.177Z,9.719089
2022-12-20T01:21:30.132Z,9.719003
2022-12-20T01:22:30.145Z,9.718911
2022-12-20T01:23:30.118Z,9.719012
2022-12-20T01:24:30.108Z,9.719161
2022-12-20T01:25:30.128Z,9.719056
2022-12-20T01:26:30.087Z,9.719020
2022-12-20T01:27:30.083Z,9.718886
2022-12-20T01:28:30.086Z,9.719051
2022-12-20T01:29:30.082Z,9.719040
2022-12-20T01:30:30.074Z,9.718919
2022-12-20T01:31:30.185Z,9.719031
2022-12-20T01:32:30.028Z,9.719023
2022-12-20T01:33:31.029Z,9.719017
2022-12-20T01:34:30.026Z,9.719145
2022-12-20T01:35:30.014Z,9.719179
2022-12-20T01:36:30.010Z,9.719270
2022-12-20T01:37:29.981Z,9.719082
2022-12-20T01:38:30.001Z,9.719057
2022-12-20T01:39:29.979Z,9.719112
2022-12-20T01:40:29.958Z,9.719124
2022-12-20T01:41:29.964Z,9.719196
2022-12-20T01:42:29.949Z,9.719061
2022-12-20T01:43:29.970Z,9.719128
2022-12-20T01:44:29.929Z,9.719183
2022-12-20T01:45:29.954Z,9.719188
2022-12-20T01:46:30.029Z,9.719263
2022-12-20T01:47:29.919Z,9.719110
2022-12-20T01:48:29.902Z,9.719077
2022-12-20T01:49:29.883Z,9.719181
2022-12-20T01:50:29.883Z,9.719162
2022-12-20T01:51:29.852Z,9.719153
2022-12-20T01:52:29.885Z,9.719238
2022-12-20T01:53:29.844Z,9.719126
2022-12-20T01:54:29.833Z,9.719123
2022-12-20T01:55:29.860Z,9.719060
2022-12-20T01:56:29.801Z,9.719030
2022-12-20T01:57:29.800Z,9.719049
2022-12-20T01:58:29.831Z,9.719056
2022-12-20T01:59:29.778Z,9.719103
2022-12-20T02:00:29.775Z,9.719151
2022-12-20T02:01:29.918Z,9.719186
2022-12-20T02:02:29.821Z,9.719069
2022-12-20T02:03:29.779Z,9.719168
2022-12-20T02:04:29.729Z,9.719257
2022-12-20T02:05:29.746Z,9.719175
2022-12-20T02:06:29.719Z,9.719146
2022-12-20T02:07:29.703Z,9.719187
2022-12-20T02:08:29.708Z,9.719145
2022-12-20T02:09:29.686Z,9.719214
2022-12-20T02:10:29.673Z,9.719153
2022-12-20T02:11:29.661Z,9.719082
2022-12-20T02:12:29.648Z,9.719093
2022-12-20T02:13:29.659Z,9.719180
2022-12-20T02:14:29.635Z,9.719166
2022-12-20T02:15:29.617Z,9.719433
2022-12-20T02:16:29.654Z,9.719644
2022-12-20T02:17:29.600Z,9.719883
2022-12-20T02:18:29.604Z,9.719479
2022-12-20T02:19:29.593Z,9.719304
2022-12-20T02:20:29.601Z,9.719342
2022-12-20T02:21:29.568Z,9.719302
2022-12-20T02:22:29.547Z,9.719442
2022-12-20T02:23:29.537Z,9.719362
2022-12-20T02:24:29.541Z,9.719507
2022-12-20T02:25:29.546Z,9.719340
2022-12-20T02:26:29.516Z,9.719201
2022-12-20T02:27:29.496Z,9.719275
2022-12-20T02:28:29.502Z,9.719375
2022-12-20T02:29:30.518Z,9.719584
2022-12-20T02:30:29.464Z,9.719666
2022-12-20T02:31:29.482Z,9.719623
2022-12-20T02:32:29.491Z,9.720115
2022-12-20T02:33:29.466Z,9.720123
2022-12-20T02:34:29.435Z,9.719629
2022-12-20T02:35:29.412Z,9.720000
2022-12-20T02:36:29.444Z,9.720034
2022-12-20T02:37:29.392Z,9.719403
2022-12-20T02:38:29.381Z,9.719276
2022-12-20T02:39:29.368Z,9.719332
2022-12-20T02:40:29.373Z,9.719419
2022-12-20T02:41:29.376Z,9.719344
2022-12-20T02:42:29.348Z,9.719369
2022-12-20T02:43:29.371Z,9.719058
2022-12-20T02:44:29.361Z,9.719095
2022-12-20T02:45:29.361Z,9.719098
2022-12-20T02:46:29.401Z,9.719115
2022-12-20T02:47:29.302Z,9.718984
2022-12-20T02:48:29.280Z,9.719066
2022-12-20T02:49:29.289Z,9.719095
2022-12-20T02:50:29.270Z,9.719057
2022-12-20T02:51:29.286Z,9.719086
2022-12-20T02:52:29.277Z,9.719051
2022-12-20T02:53:29.263Z,9.719040
2022-12-20T02:54:29.258Z,9.719048
2022-12-20T02:55:29.227Z,9.719122
2022-12-20T02:56:29.217Z,9.719036
2022-12-20T02:57:29.242Z,9.719106
2022-12-20T02:58:29.195Z,9.719006
2022-12-20T02:59:29.222Z,9.719055
2022-12-20T03:00:29.160Z,9.719121
2022-12-20T03:01:29.280Z,9.719066
2022-12-20T03:02:29.274Z,9.719099
2022-12-20T03:03:29.241Z,9.719035
2022-12-20T03:04:29.176Z,9.719011
2022-12-20T03:05:29.158Z,9.719058
2022-12-20T03:06:29.097Z,9.719045
2022-12-20T03:07:29.109Z,9.719070
2022-12-20T03:08:29.091Z,9.719019
2022-12-20T03:09:29.097Z,9.719019
2022-12-20T03:10:29.159Z,9.719103
2022-12-20T03:11:29.052Z,9.719105
2022-12-20T03:12:29.054Z,9.719018
2022-12-20T03:13:29.053Z,9.719050
2022-12-20T03:14:29.017Z,9.718955
2022-12-20T03:15:29.015Z,9.719033
2022-12-20T03:16:29.068Z,9.719140
2022-12-20T03:17:29.020Z,9.719222
2022-12-20T03:18:28.994Z,9.719131
2022-12-20T03:20:00.926Z,9.719260
2022-12-20T03:20:28.970Z,9.719380
2022-12-20T03:21:28.967Z,9.719272
2022-12-20T03:22:28.952Z,9.719259
2022-12-20T03:23:28.959Z,9.719290
2022-12-20T03:24:28.926Z,9.719190
2022-12-20T03:25:28.970Z,9.719213
2022-12-20T03:26:28.908Z,9.719119
2022-12-20T03:27:28.915Z,9.719296
2022-12-20T03:28:28.897Z,9.719399
2022-12-20T03:29:28.909Z,9.719234
2022-12-20T03:30:28.911Z,9.719106
2022-12-20T03:31:28.936Z,9.719287
2022-12-20T03:32:28.863Z,9.719243
2022-12-20T03:33:28.887Z,9.719099
2022-12-20T03:34:28.829Z,9.719315
2022-12-20T03:35:28.822Z,9.719286
2022-12-20T03:36:28.817Z,9.719320
2022-12-20T03:37:28.800Z,9.718921
2022-12-20T03:38:28.840Z,9.719130
2022-12-20T03:39:28.773Z,9.718884
2022-12-20T03:40:28.782Z,9.719135
2022-12-20T03:41:28.765Z,9.719190
2022-12-20T03:42:28.764Z,9.719334
2022-12-20T03:43:28.790Z,9.719266
2022-12-20T03:44:28.799Z,9.719139
2022-12-20T03:45:28.725Z,9.719110
2022-12-20T03:46:28.833Z,9.719274
2022-12-20T03:47:28.717Z,9.719157
2022-12-20T03:48:28.720Z,9.719295
2022-12-20T03:49:28.754Z,9.719124
2022-12-20T03:50:28.683Z,9.719279
2022-12-20T03:51:28.684Z,9.719251
2022-12-20T03:52:28.656Z,9.719314
2022-12-20T03:53:28.652Z,9.719361
2022-12-20T03:54:28.680Z,9.719127
2022-12-20T03:55:28.623Z,9.719156
2022-12-20T03:56:28.622Z,9.719247
2022-12-20T03:57:28.625Z,9.719334
2022-12-20T03:58:28.603Z,9.719496
2022-12-20T03:59:28.592Z,9.719296
2022-12-20T04:00:28.574Z,9.719064
2022-12-20T04:01:28.701Z,9.718795
2022-12-20T04:02:28.739Z,9.718690
2022-12-20T04:03:28.663Z,9.718301
2022-12-20T04:04:28.555Z,9.718592
2022-12-20T04:05:28.546Z,9.718739
2022-12-20T04:06:28.720Z,9.718719
2022-12-20T04:07:28.501Z,9.719090
2022-12-20T04:08:28.523Z,9.719194
2022-12-20T04:09:28.536Z,9.719224
2022-12-20T04:10:28.474Z,9.719091
2022-12-20T04:11:28.475Z,9.719120
2022-12-20T04:12:28.487Z,9.719091
2022-12-20T04:13:28.447Z,9.719170
2022-12-20T04:14:28.445Z,9.719060
2022-12-20T04:15:28.529Z,9.719073
2022-12-20T04:16:28.509Z,9.719059
2022-12-20T04:17:28.463Z,9.719090
2022-12-20T04:18:28.404Z,9.719171
2022-12-20T04:19:28.421Z,9.719216
2022-12-20T04:20:28.377Z,9.719142
2022-12-20T04:21:28.382Z,9.719146
2022-12-20T04:22:28.379Z,9.719148
2022-12-20T04:23:29.358Z,9.719121
2022-12-20T04:24:28.364Z,9.719199
2022-12-20T04:25:28.346Z,9.719138
2022-12-20T04:26:28.336Z,9.719157
2022-12-20T04:27:28.318Z,9.719171
2022-12-20T04:28:28.315Z,9.719177
2022-12-20T04:29:28.303Z,9.719106
2022-12-20T04:30:28.307Z,9.718711
2022-12-20T04:31:28.357Z,9.718770
2022-12-20T04:32:28.266Z,9.718703
2022-12-20T04:33:28.246Z,9.719037
2022-12-20T04:34:28.236Z,9.719430
2022-12-20T04:35:28.254Z,9.719182
2022-12-20T04:36:28.231Z,9.719386
2022-12-20T04:37:28.221Z,9.719502
2022-12-20T04:38:28.202Z,9.719414
2022-12-20T04:39:28.223Z,9.719325
2022-12-20T04:40:28.178Z,9.719448
2022-12-20T04:41:28.186Z,9.719289
2022-12-20T04:42:28.180Z,9.719534
2022-12-20T04:43:28.163Z,9.719561
2022-12-20T04:44:28.154Z,9.719572
2022-12-20T04:45:28.137Z,9.719507
2022-12-20T04:46:28.193Z,9.719700
2022-12-20T04:47:28.163Z,9.719811
2022-12-20T04:49:30.089Z,9.719234
2022-12-20T04:50:28.108Z,9.719557
2022-12-20T04:51:28.081Z,9.719617
2022-12-20T04:52:28.102Z,9.719726
2022-12-20T04:53:28.066Z,9.719612
2022-12-20T04:54:28.061Z,9.719472
2022-12-20T04:55:28.049Z,9.719704
2022-12-20T04:56:28.049Z,9.719731
2022-12-20T04:57:28.035Z,9.719493
2022-12-20T04:58:28.008Z,9.719392
2022-12-20T04:59:28.000Z,9.719436
2022-12-20T05:00:27.995Z,9.719450
2022-12-20T05:01:28.099Z,9.718818
2022-12-20T05:02:28.153Z,9.719452
2022-12-20T05:03:27.972Z,9.719474
2022-12-20T05:04:31.675Z,9.719422
2022-12-20T05:05:29.943Z,9.719464
2022-12-20T05:06:27.960Z,9.719547
2022-12-20T05:07:27.925Z,9.719149
2022-12-20T05:08:27.906Z,9.719034
2022-12-20T05:09:27.900Z,9.719190
2022-12-20T05:10:27.884Z,9.719168
2022-12-20T05:11:27.897Z,9.719337
2022-12-20T05:12:27.886Z,9.719273
2022-12-20T05:13:27.851Z,9.719399
2022-12-20T05:14:27.830Z,9.719362
2022-12-20T05:15:27.854Z,9.719272
2022-12-20T05:16:27.895Z,9.719003
2022-12-20T05:17:27.798Z,9.718907
2022-12-20T05:18:27.830Z,9.718955
2022-12-20T05:19:27.794Z,9.718965
2022-12-20T05:20:27.780Z,9.718741
2022-12-20T05:21:27.801Z,9.718612
2022-12-20T05:22:27.775Z,9.718786
2022-12-20T05:23:27.750Z,9.719315
2022-12-20T05:24:27.741Z,9.719369
2022-12-20T05:25:27.746Z,9.719403
2022-12-20T05:26:27.768Z,9.719132
2022-12-20T05:27:27.729Z,9.719112
2022-12-20T05:28:27.717Z,9.718978
2022-12-20T05:29:27.707Z,9.718988
2022-12-20T05:30:27.700Z,9.719076
2022-12-20T05:31:27.748Z,9.719121
2022-12-20T05:32:27.710Z,9.719280
2022-12-20T05:33:33.680Z,9.719135
2022-12-20T05:34:28.681Z,9.719276
2022-12-20T05:35:27.627Z,9.719170
2022-12-20T05:36:27.639Z,9.719199
2022-12-20T05:37:27.627Z,9.719149
2022-12-20T05:38:27.615Z,9.719239
2022-12-20T05:39:28.610Z,9.719103
2022-12-20T05:40:27.595Z,9.719221
2022-12-20T05:41:27.584Z,9.719193
2022-12-20T05:42:27.571Z,9.719192
2022-12-20T05:43:27.552Z,9.719088
2022-12-20T05:44:27.557Z,9.719205
2022-12-20T05:45:27.556Z,9.718953
2022-12-20T05:46:27.559Z,9.719148
2022-12-20T05:47:27.517Z,9.719219
2022-12-20T05:48:27.515Z,9.719126
2022-12-20T05:49:27.506Z,9.719094
2022-12-20T05:50:27.509Z,9.719163
2022-12-20T05:51:27.484Z,9.719129
2022-12-20T05:52:27.471Z,9.719252
2022-12-20T05:53:27.478Z,9.719100
2022-12-20T05:54:27.460Z,9.719132
2022-12-20T05:55:27.453Z,9.719220
2022-12-20T05:56:27.448Z,9.719109
2022-12-20T05:57:27.422Z,9.719064
2022-12-20T05:58:27.429Z,9.719181
2022-12-20T05:59:27.429Z,9.719094
2022-12-20T06:00:27.390Z,9.719075
2022-12-20T06:01:27.471Z,9.719114
2022-12-20T06:02:27.462Z,9.719322
2022-12-20T06:03:27.510Z,9.719172
2022-12-20T06:04:27.365Z,9.719198
2022-12-20T06:05:27.331Z,9.719011
2022-12-20T06:06:27.344Z,9.719030
2022-12-20T06:07:27.316Z,9.718939
2022-12-20T06:08:27.299Z,9.718947
2022-12-20T06:09:27.300Z,9.718701
2022-12-20T06:10:27.313Z,9.718857
2022-12-20T06:11:30.204Z,9.718867
2022-12-20T06:12:27.292Z,9.718970
2022-12-20T06:13:27.270Z,9.718976
2022-12-20T06:14:27.256Z,9.719009
2022-12-20T06:15:27.276Z,9.718936
2022-12-20T06:16:27.292Z,9.718971
2022-12-20T06:17:27.235Z,9.718917
2022-12-20T06:18:27.252Z,9.718971
2022-12-20T06:19:27.195Z,9.718880
2022-12-20T06:20:27.219Z,9.719006
2022-12-20T06:21:27.224Z,9.718985
2022-12-20T06:22:27.205Z,9.719061
2022-12-20T06:23:27.200Z,9.719437
2022-12-20T06:24:27.168Z,9.718854
2022-12-20T06:25:27.152Z,9.718613
2022-12-20T06:26:27.157Z,9.718613
2022-12-20T06:27:27.139Z,9.718613
2022-12-20T06:28:27.113Z,9.718613
2022-12-20T06:29:27.119Z,9.719011
2022-12-20T06:30:33.362Z,9.719039
2022-12-20T06:31:28.118Z,9.719051
2022-12-20T06:32:27.067Z,9.719097
2022-12-20T06:33:27.077Z,9.719139
2022-12-20T06:34:27.058Z,9.719172
2022-12-20T06:35:27.073Z,9.719159
2022-12-20T06:36:27.040Z,9.719263
2022-12-20T06:37:27.032Z,9.719489
2022-12-20T06:38:27.020Z,9.719612
2022-12-20T06:39:27.026Z,9.719246
2022-12-20T06:40:26.996Z,9.719193
2022-12-20T06:41:27.023Z,9.719180
2022-12-20T06:42:26.977Z,9.719133
2022-12-20T06:43:26.970Z,9.719162
2022-12-20T06:44:26.976Z,9.719254
2022-12-20T06:45:27.001Z,9.719235
2022-12-20T06:46:26.989Z,9.719212
2022-12-20T06:47:26.941Z,9.719300
2022-12-20T06:48:26.923Z,9.719300
2022-12-20T06:49:26.934Z,9.719344
2022-12-20T06:50:26.925Z,9.719237
2022-12-20T06:51:26.908Z,9.719237
2022-12-20T06:52:26.894Z,9.719347
2022-12-20T06:53:26.873Z,9.719396
2022-12-20T06:54:26.852Z,9.719309
2022-12-20T06:55:26.839Z,9.719391
2022-12-20T06:56:26.863Z,9.719254
2022-12-20T06:57:26.819Z,9.719064
2022-12-20T06:58:26.816Z,9.719168
2022-12-20T06:59:26.815Z,9.719231
2022-12-20T07:00:26.834Z,9.719244
2022-12-20T07:01:26.909Z,9.719153
2022-12-20T07:02:27.902Z,9.719253
2022-12-20T07:03:27.861Z,9.719310
2022-12-20T07:04:26.750Z,9.719264
2022-12-20T07:05:26.808Z,9.719241
2022-12-20T07:06:26.741Z,9.719112
2022-12-20T07:07:26.724Z,9.719241
2022-12-20T07:08:26.712Z,9.719259
2022-12-20T07:09:26.706Z,9.719322
2022-12-20T07:10:26.704Z,9.719299
2022-12-20T07:11:26.695Z,9.719269
2022-12-20T07:12:26.670Z,9.719245
2022-12-20T07:13:26.674Z,9.719269
2022-12-20T07:14:26.682Z,9.719246
2022-12-20T07:15:26.648Z,9.719163
2022-12-20T07:16:26.768Z,9.719162
2022-12-20T07:17:26.626Z,9.719101
2022-12-20T07:18:26.616Z,9.719157
2022-12-20T07:19:26.617Z,9.719090
2022-12-20T07:20:26.665Z,9.719125
2022-12-20T07:21:26.601Z,9.719167
2022-12-20T07:22:26.614Z,9.719254
2022-12-20T07:23:26.570Z,9.719219
2022-12-20T07:24:26.568Z,9.719144
2022-12-20T07:25:26.547Z,9.719143
2022-12-20T07:26:26.537Z,9.719261
2022-12-20T07:27:26.546Z,9.719230
2022-12-20T07:28:26.533Z,9.719201
2022-12-20T07:29:26.512Z,9.719157
2022-12-20T07:30:26.493Z,9.719191
2022-12-20T07:31:26.612Z,9.719010
2022-12-20T07:32:26.495Z,9.718873
2022-12-20T07:33:26.469Z,9.719010
2022-12-20T07:34:26.506Z,9.718893
2022-12-20T07:35:26.461Z,9.719014
2022-12-20T07:36:26.420Z,9.719031
2022-12-20T07:37:26.423Z,9.718990
2022-12-20T07:38:26.428Z,9.719033
2022-12-20T07:39:26.426Z,9.719180
2022-12-20T07:40:26.423Z,9.719165
2022-12-20T07:41:26.389Z,9.719051
2022-12-20T07:42:33.556Z,9.719136
2022-12-20T07:43:27.398Z,9.719131
2022-12-20T07:44:26.367Z,9.719115
2022-12-20T07:45:26.403Z,9.719253
2022-12-20T07:46:26.373Z,9.719269
2022-12-20T07:47:26.341Z,9.719337
2022-12-20T07:48:26.351Z,9.719339
2022-12-20T07:49:26.315Z,9.719235
2022-12-20T07:50:26.329Z,9.719229
2022-12-20T07:51:26.283Z,9.719229
2022-12-20T07:52:26.317Z,9.719229
2022-12-20T07:53:26.338Z,9.719273
2022-12-20T07:54:26.279Z,9.719273
2022-12-20T07:55:26.257Z,9.719273
2022-12-20T07:56:26.309Z,9.719273
2022-12-20T07:57:26.231Z,9.719273
2022-12-20T07:58:26.223Z,9.719273
2022-12-20T07:59:26.227Z,9.719273
2022-12-20T08:00:26.199Z,9.719273
2022-12-20T08:01:26.459Z,9.719273
2022-12-20T08:02:26.343Z,9.719273
2022-12-20T08:03:26.344Z,9.719368
2022-12-20T08:04:26.188Z,9.719216
2022-12-20T08:05:26.159Z,9.719191
2022-12-20T08:06:26.148Z,9.719212
2022-12-20T08:07:26.170Z,9.719358
2022-12-20T08:08:26.217Z,9.719367
2022-12-20T08:09:26.139Z,9.719346
2022-12-20T08:10:26.187Z,9.719352
2022-12-20T08:11:26.088Z,9.719349
2022-12-20T08:12:26.088Z,9.719313
2022-12-20T08:13:26.107Z,9.719254
2022-12-20T08:14:26.086Z,9.719352
2022-12-20T08:15:26.083Z,9.719310
2022-12-20T08:16:26.147Z,9.719277
2022-12-20T08:17:26.060Z,9.719328
2022-12-20T08:18:26.032Z,9.719443
2022-12-20T08:19:32.051Z,9.719327
2022-12-20T08:20:27.040Z,9.719461
2022-12-20T08:21:25.993Z,9.719374
2022-12-20T08:22:25.996Z,9.719357
2022-12-20T08:23:25.983Z,9.719422
2022-12-20T08:24:26.035Z,9.719316
2022-12-20T08:25:25.961Z,9.719475
2022-12-20T08:26:25.979Z,9.719438
2022-12-20T08:27:25.957Z,9.719502
2022-12-20T08:28:25.942Z,9.719545
2022-12-20T08:29:25.926Z,9.719384
2022-12-20T08:30:25.946Z,9.719263
2022-12-20T08:31:25.977Z,9.719288
2022-12-20T08:32:25.901Z,9.719501
2022-12-20T08:33:25.869Z,9.719443
2022-12-20T08:34:25.870Z,9.719602
2022-12-20T08:35:25.853Z,9.719468
2022-12-20T08:36:26.888Z,9.719483
2022-12-20T08:37:25.850Z,9.719611
2022-12-20T08:38:25.829Z,9.719393
2022-12-20T08:39:25.824Z,9.719355
2022-12-20T08:40:25.905Z,9.719407
2022-12-20T08:41:25.829Z,9.719292
2022-12-20T08:42:25.795Z,9.719238
2022-12-20T08:43:25.797Z,9.719237
2022-12-20T08:44:25.813Z,9.719174
2022-12-20T08:45:25.775Z,9.718951
2022-12-20T08:46:25.809Z,9.719377
2022-12-20T08:47:25.748Z,9.719292
2022-12-20T08:48:25.726Z,9.719309
2022-12-20T08:49:25.750Z,9.719281
2022-12-20T08:50:25.802Z,9.719201
2022-12-20T08:51:25.821Z,9.719194
2022-12-20T08:52:25.707Z,9.719423
2022-12-20T08:53:25.691Z,9.719178
2022-12-20T08:54:25.677Z,9.719401
2022-12-20T08:55:29.305Z,9.719318
2022-12-20T08:56:25.649Z,9.719378
2022-12-20T08:57:25.651Z,9.719371
2022-12-20T08:58:25.645Z,9.719334
2022-12-20T08:59:25.620Z,9.719442
2022-12-20T09:00:25.728Z,9.719402
2022-12-20T09:01:25.702Z,9.719317
2022-12-20T09:02:25.782Z,9.719318
2022-12-20T09:03:25.637Z,9.719270
2022-12-20T09:04:25.596Z,9.719417
2022-12-20T09:05:25.589Z,9.719542
2022-12-20T09:06:25.564Z,9.719592
2022-12-20T09:07:25.550Z,9.719658
2022-12-20T09:08:25.546Z,9.719643
2022-12-20T09:09:25.591Z,9.719296
2022-12-20T09:10:25.562Z,9.719189
2022-12-20T09:11:25.519Z,9.719212
2022-12-20T09:12:25.497Z,9.719352
2022-12-20T09:13:25.492Z,9.719334
2022-12-20T09:14:25.494Z,9.719348
2022-12-20T09:15:25.506Z,9.719298
2022-12-20T09:16:25.526Z,9.719262
2022-12-20T09:17:25.452Z,9.719317
2022-12-20T09:18:25.427Z,9.719347
2022-12-20T09:19:25.440Z,9.719422
2022-12-20T09:20:57.336Z,9.719369
2022-12-20T09:21:25.414Z,9.719494
2022-12-20T09:22:25.407Z,9.719546
2022-12-20T09:23:25.386Z,9.719569
2022-12-20T09:24:25.398Z,9.719505
2022-12-20T09:25:25.393Z,9.719632
2022-12-20T09:26:25.376Z,9.719445
2022-12-20T09:27:25.340Z,9.719540
2022-12-20T09:28:26.352Z,9.719815
2022-12-20T09:29:30.780Z,9.719693
2022-12-20T09:30:27.349Z,9.719678
2022-12-20T09:31:25.363Z,9.719678
2022-12-20T09:32:25.291Z,9.719678
2022-12-20T09:33:25.291Z,9.719569
2022-12-20T09:34:25.286Z,9.719581
2022-12-20T09:35:25.296Z,9.719581
2022-12-20T09:36:25.262Z,9.719581
2022-12-20T09:37:25.260Z,9.719581
2022-12-20T09:38:25.231Z,9.719581
2022-12-20T09:39:25.269Z,9.719589
2022-12-20T09:40:25.300Z,9.719540
2022-12-20T09:41:25.231Z,9.719270
2022-12-20T09:42:25.218Z,9.719263
2022-12-20T09:43:25.219Z,9.719101
2022-12-20T09:44:25.242Z,9.719103
2022-12-20T09:45:25.190Z,9.719272
2022-12-20T09:46:25.193Z,9.719337
2022-12-20T09:47:25.183Z,9.719241
2022-12-20T09:48:25.141Z,9.719212
2022-12-20T09:49:25.163Z,9.719226
2022-12-20T09:50:25.212Z,9.719202
2022-12-20T09:51:25.118Z,9.719305
2022-12-20T09:52:25.115Z,9.719232
2022-12-20T09:53:25.111Z,9.719310
2022-12-20T09:54:25.085Z,9.719261
2022-12-20T09:55:25.151Z,9.719174
2022-12-20T09:56:25.072Z,9.719177
2022-12-20T09:57:25.111Z,9.719175
2022-12-20T09:58:25.040Z,9.719266
2022-12-20T09:59:25.021Z,9.719296
2022-12-20T10:00:25.093Z,9.719289
2022-12-20T10:01:26.528Z,9.719323
2022-12-20T10:02:57.157Z,9.719315
2022-12-20T10:03:27.069Z,9.719310
2022-12-20T10:04:25.197Z,9.719278
2022-12-20T10:05:25.098Z,9.719330
2022-12-20T10:06:24.938Z,9.719276
2022-12-20T10:07:24.972Z,9.719322
2022-12-20T10:08:24.948Z,9.719181
2022-12-20T10:09:24.943Z,9.719336
2022-12-20T10:10:24.939Z,9.719278
2022-12-20T10:11:24.893Z,9.719316
2022-12-20T10:12:24.907Z,9.719280
2022-12-20T10:13:24.878Z,9.719310
2022-12-20T10:14:24.888Z,9.719268
2022-12-20T10:15:24.890Z,9.719224
2022-12-20T10:16:24.974Z,9.719313
2022-12-20T10:17:30.513Z,9.719302
2022-12-20T10:18:25.858Z,9.719244
2022-12-20T10:19:24.822Z,9.719130
2022-12-20T10:20:24.820Z,9.719103
2022-12-20T10:21:24.844Z,9.719118
2022-12-20T10:22:24.846Z,9.719203
2022-12-20T10:23:31.098Z,9.719401
2022-12-20T10:24:25.790Z,9.719419
2022-12-20T10:25:24.763Z,9.719374
2022-12-20T10:26:24.764Z,9.719264
2022-12-20T10:27:24.795Z,9.719348
2022-12-20T10:28:24.776Z,9.719516
2022-12-20T10:29:24.719Z,9.719325
2022-12-20T10:30:24.742Z,9.719287
2022-12-20T10:31:24.737Z,9.719179
2022-12-20T10:32:24.715Z,9.719174
2022-12-20T10:33:24.731Z,9.719198
2022-12-20T10:34:24.697Z,9.719242
2022-12-20T10:35:24.702Z,9.719321
2022-12-20T10:36:24.665Z,9.719216
2022-12-20T10:37:24.688Z,9.719127
2022-12-20T10:38:24.693Z,9.719135
2022-12-20T10:39:24.632Z,9.719136
2022-12-20T10:40:34.406Z,9.719209
2022-12-20T10:41:25.638Z,9.719143
2022-12-20T10:42:24.610Z,9.719109
2022-12-20T10:43:24.620Z,9.719118
2022-12-20T10:44:24.688Z,9.719120
2022-12-20T10:45:24.575Z,9.719105
2022-12-20T10:46:24.608Z,9.719085
2022-12-20T10:47:24.584Z,9.719061
2022-12-20T10:48:24.704Z,9.719094
2022-12-20T10:49:24.545Z,9.719056
2022-12-20T10:50:24.547Z,9.719054
2022-12-20T10:51:24.548Z,9.719079
2022-12-20T10:52:24.532Z,9.719125
2022-12-20T10:53:24.521Z,9.719132
2022-12-20T10:54:24.496Z,9.719152
2022-12-20T10:55:24.492Z,9.719110
2022-12-20T10:56:24.504Z,9.719083
2022-12-20T10:57:24.502Z,9.719090
2022-12-20T10:58:24.490Z,9.719039
2022-12-20T10:59:24.485Z,9.719102
2022-12-20T11:00:24.440Z,9.719131
2022-12-20T11:01:24.470Z,9.719214
2022-12-20T11:02:25.736Z,9.719204
2022-12-20T11:03:24.590Z,9.719193
2022-12-20T11:04:24.431Z,9.719147
2022-12-20T11:05:24.397Z,9.719101
2022-12-20T11:06:24.373Z,9.719100
2022-12-20T11:07:24.403Z,9.719090
2022-12-20T11:08:37.499Z,9.719143
2022-12-20T11:09:26.336Z,9.719148
2022-12-20T11:10:24.380Z,9.719178
2022-12-20T11:11:24.325Z,9.719175
2022-12-20T11:12:24.312Z,9.719137
2022-12-20T11:13:24.347Z,9.719114
2022-12-20T11:14:24.292Z,9.719125
2022-12-20T11:15:33.571Z,9.719131
2022-12-20T11:16:25.401Z,9.719169
2022-12-20T11:17:24.257Z,9.719242
2022-12-20T11:18:24.261Z,9.719239
2022-12-20T11:19:24.232Z,9.719179
2022-12-20T11:20:24.223Z,9.719213
2022-12-20T11:21:27.850Z,9.719238
2022-12-20T11:22:25.213Z,9.719179
2022-12-20T11:23:24.361Z,9.719131
2022-12-20T11:24:24.192Z,9.719209
2022-12-20T11:25:24.186Z,9.719119
2022-12-20T11:26:24.169Z,9.719220
2022-12-20T11:27:24.172Z,9.719275
2022-12-20T11:28:24.148Z,9.719227
2022-12-20T11:29:24.151Z,9.719133
2022-12-20T11:30:24.145Z,9.719193
2022-12-20T11:31:24.223Z,9.719174
2022-12-20T11:32:24.084Z,9.719122
2022-12-20T11:33:24.093Z,9.719128
2022-12-20T11:34:24.096Z,9.719161
2022-12-20T11:35:24.071Z,9.719091
2022-12-20T11:36:24.077Z,9.719081
2022-12-20T11:37:24.067Z,9.719060
2022-12-20T11:38:24.074Z,9.719072
2022-12-20T11:39:24.028Z,9.719140
2022-12-20T11:40:24.029Z,9.719228
2022-12-20T11:41:24.001Z,9.719180
2022-12-20T11:42:24.129Z,9.719086
2022-12-20T11:43:23.995Z,9.718848
2022-12-20T11:44:26.327Z,9.718947
2022-12-20T11:45:24.967Z,9.719161